createdAt,value
2022-08-21T00:02:01.031Z,22.27
2022-08-21T00:04:06.843Z,22.25
2022-08-21T00:06:09.831Z,22.19
2022-08-21T00:08:19.371Z,22.14
2022-08-21T00:10:23.636Z,22.11
2022-08-21T00:12:26.523Z,22.02
2022-08-21T00:14:31.302Z,21.99
2022-08-21T00:16:35.121Z,21.98
2022-08-21T00:18:37.961Z,21.93
2022-08-21T00:20:43.389Z,21.91
2022-08-21T00:22:47.039Z,21.88
2022-08-21T00:24:51.235Z,21.81
2022-08-21T00:26:54.473Z,21.76
2022-08-21T00:28:57.378Z,21.75
2022-08-21T00:31:04.771Z,21.75
2022-08-21T00:33:09.313Z,21.69
2022-08-21T00:35:15.335Z,21.69
2022-08-21T00:37:18.290Z,21.56
2022-08-21T00:39:21.121Z,21.51
2022-08-21T00:41:38.505Z,21.50
2022-08-21T00:43:43.555Z,21.45
2022-08-21T00:45:55.039Z,21.46
2022-08-21T00:47:58.216Z,21.42
2022-08-21T00:50:01.107Z,21.44
2022-08-21T00:52:05.638Z,21.46
2022-08-21T00:54:17.947Z,21.44
2022-08-21T00:56:23.211Z,21.44
2022-08-21T00:58:29.531Z,21.46
2022-08-21T01:00:35.819Z,21.44
2022-08-21T01:02:38.902Z,21.42
2022-08-21T01:04:42.514Z,21.39
2022-08-21T01:06:45.853Z,21.41
2022-08-21T01:08:49.112Z,21.37
2022-08-21T01:10:54.773Z,21.31
2022-08-21T01:13:02.181Z,21.31
2022-08-21T01:15:08.205Z,21.27
2022-08-21T01:17:14.569Z,21.21
2022-08-21T01:19:19.316Z,21.13
2022-08-21T01:21:28.054Z,21.08
2022-08-21T01:23:31.424Z,21.07
2022-08-21T01:25:36.708Z,21.04
2022-08-21T01:27:39.775Z,21.04
2022-08-21T01:29:47.189Z,21.01
2022-08-21T01:31:50.635Z,20.92
2022-08-21T01:33:54.236Z,20.87
2022-08-21T01:35:57.389Z,20.81
2022-08-21T01:38:01.668Z,20.80
2022-08-21T01:40:05.881Z,20.70
2022-08-21T01:42:09.836Z,20.71
2022-08-21T01:44:12.636Z,20.69
2022-08-21T01:46:15.667Z,20.71
2022-08-21T01:48:18.528Z,20.73
2022-08-21T01:50:22.521Z,20.73
2022-08-21T01:52:25.393Z,20.67
2022-08-21T01:54:29.652Z,20.69
2022-08-21T01:56:45.188Z,20.72
2022-08-21T01:58:49.256Z,20.68
2022-08-21T02:00:54.961Z,20.64
2022-08-21T02:02:57.994Z,20.60
2022-08-21T02:05:00.928Z,20.56
2022-08-21T02:07:04.901Z,20.52
2022-08-21T02:09:12.812Z,20.48
2022-08-21T02:11:17.004Z,20.28
2022-08-21T02:13:20.191Z,20.35
2022-08-21T02:15:24.464Z,20.36
2022-08-21T02:17:27.647Z,20.32
2022-08-21T02:19:30.495Z,20.27
2022-08-21T02:21:42.978Z,20.29
2022-08-21T02:23:46.735Z,20.30
2022-08-21T02:25:49.625Z,20.23
2022-08-21T02:27:54.910Z,20.28
2022-08-21T02:29:59.230Z,20.24
2022-08-21T02:32:02.112Z,20.19
2022-08-21T02:34:06.313Z,20.20
2022-08-21T02:36:11.481Z,20.21
2022-08-21T02:38:16.306Z,20.18
2022-08-21T02:40:21.223Z,20.21
2022-08-21T02:42:24.111Z,20.20
2022-08-21T02:44:34.545Z,20.18
2022-08-21T02:46:37.718Z,20.14
2022-08-21T02:48:40.685Z,20.10
2022-08-21T02:50:46.094Z,20.05
2022-08-21T02:52:51.830Z,20.01
2022-08-21T02:54:57.993Z,19.98
2022-08-21T02:57:00.931Z,19.91
2022-08-21T02:59:03.872Z,19.81
2022-08-21T03:01:10.291Z,19.80
2022-08-21T03:03:14.305Z,19.74
2022-08-21T03:05:17.705Z,19.71
2022-08-21T03:07:20.495Z,19.70
2022-08-21T03:09:23.369Z,19.71
2022-08-21T03:11:27.425Z,19.71
2022-08-21T03:13:30.568Z,19.73
2022-08-21T03:15:33.835Z,19.64
2022-08-21T03:17:39.273Z,19.48
2022-08-21T03:19:42.127Z,19.48
2022-08-21T03:21:44.997Z,19.59
2022-08-21T03:23:47.930Z,19.60
2022-08-21T03:25:51.990Z,19.54
2022-08-21T03:27:59.223Z,19.51
2022-08-21T03:30:04.500Z,19.51
2022-08-21T03:32:10.073Z,19.55
2022-08-21T03:34:14.825Z,19.52
2022-08-21T03:36:17.941Z,19.49
2022-08-21T03:38:25.901Z,19.46
2022-08-21T03:40:29.712Z,19.51
2022-08-21T03:42:32.586Z,19.44
2022-08-21T03:44:35.519Z,19.47
2022-08-21T03:46:38.393Z,19.46
2022-08-21T03:48:41.371Z,19.44
2022-08-21T03:50:47.712Z,19.43
2022-08-21T03:52:50.837Z,19.36
2022-08-21T03:54:53.697Z,19.35
2022-08-21T03:56:57.155Z,19.34
2022-08-21T03:58:59.996Z,19.27
2022-08-21T04:01:05.495Z,19.23
2022-08-21T04:03:08.308Z,19.23
2022-08-21T04:05:11.954Z,19.22
2022-08-21T04:07:16.148Z,19.17
2022-08-21T04:09:19.275Z,19.19
2022-08-21T04:11:22.184Z,19.26
2022-08-21T04:13:25.097Z,19.27
2022-08-21T04:15:29.310Z,19.17
2022-08-21T04:17:32.233Z,19.13
2022-08-21T04:19:35.294Z,19.12
2022-08-21T04:21:39.454Z,19.09
2022-08-21T04:23:43.846Z,18.79
2022-08-21T04:25:46.718Z,18.86
2022-08-21T04:27:49.718Z,18.93
2022-08-21T04:29:52.515Z,19.02
2022-08-21T04:31:55.489Z,19.01
2022-08-21T04:33:58.559Z,18.97
2022-08-21T04:36:03.338Z,18.96
2022-08-21T04:38:15.631Z,18.99
2022-08-21T04:40:21.378Z,18.92
2022-08-21T04:42:24.711Z,18.88
2022-08-21T04:44:27.576Z,18.79
2022-08-21T04:46:31.118Z,18.82
2022-08-21T04:48:34.839Z,18.80
2022-08-21T04:50:42.699Z,18.79
2022-08-21T04:52:48.826Z,18.80
2022-08-21T04:54:55.022Z,18.80
2022-08-21T04:57:04.319Z,18.86
2022-08-21T04:59:12.589Z,18.88
2022-08-21T05:01:20.631Z,18.88
2022-08-21T05:03:24.504Z,18.85
2022-08-21T05:05:29.111Z,18.88
2022-08-21T05:07:41.902Z,18.75
2022-08-21T05:09:46.273Z,18.80
2022-08-21T05:11:49.710Z,18.83
2022-08-21T05:13:56.953Z,18.89
2022-08-21T05:16:00.665Z,18.88
2022-08-21T05:18:03.524Z,18.96
2022-08-21T05:20:07.055Z,18.93
2022-08-21T05:22:10.198Z,18.97
2022-08-21T05:24:13.802Z,19.01
2022-08-21T05:26:18.717Z,19.04
2022-08-21T05:28:21.734Z,19.09
2022-08-21T05:30:25.948Z,19.09
2022-08-21T05:32:29.674Z,19.12
2022-08-21T05:34:32.562Z,19.17
2022-08-21T05:36:35.757Z,19.27
2022-08-21T05:38:39.029Z,19.31
2022-08-21T05:40:41.894Z,19.36
2022-08-21T05:42:44.798Z,19.40
2022-08-21T05:44:57.549Z,19.45
2022-08-21T05:47:06.648Z,19.48
2022-08-21T05:49:09.813Z,19.48
2022-08-21T05:51:16.176Z,19.52
2022-08-21T05:53:23.039Z,19.57
2022-08-21T05:55:25.869Z,19.58
2022-08-21T05:57:29.106Z,19.65
2022-08-21T05:59:31.887Z,19.69
2022-08-21T06:01:34.741Z,19.70
2022-08-21T06:03:41.140Z,19.74
2022-08-21T06:05:43.977Z,19.71
2022-08-21T06:07:46.876Z,19.73
2022-08-21T06:09:49.755Z,19.77
2022-08-21T06:11:52.614Z,19.83
2022-08-21T06:13:55.473Z,19.88
2022-08-21T06:16:08.757Z,19.93
2022-08-21T06:18:12.579Z,19.94
2022-08-21T06:20:17.099Z,19.98
2022-08-21T06:22:19.815Z,19.89
2022-08-21T06:24:22.750Z,19.98
2022-08-21T06:26:25.677Z,20.10
2022-08-21T06:28:28.668Z,20.15
2022-08-21T06:30:31.496Z,20.19
2022-08-21T06:32:34.417Z,20.22
2022-08-21T06:34:38.868Z,20.25
2022-08-21T06:36:43.243Z,20.31
2022-08-21T06:38:51.762Z,20.34
2022-08-21T06:40:54.859Z,20.33
2022-08-21T06:42:58.506Z,20.40
2022-08-21T06:45:01.544Z,20.41
2022-08-21T06:47:04.582Z,20.42
2022-08-21T06:49:07.431Z,20.47
2022-08-21T06:51:18.514Z,20.53
2022-08-21T06:53:22.736Z,20.58
2022-08-21T06:55:29.080Z,20.51
2022-08-21T06:57:32.135Z,20.55
2022-08-21T06:59:35.114Z,20.67
2022-08-21T07:01:38.409Z,20.80
2022-08-21T07:03:43.045Z,20.84
2022-08-21T07:05:45.944Z,20.88
2022-08-21T07:07:49.142Z,20.96
2022-08-21T07:09:53.281Z,20.96
2022-08-21T07:11:58.460Z,20.98
2022-08-21T07:14:01.324Z,21.02
2022-08-21T07:16:04.866Z,21.08
2022-08-21T07:18:07.910Z,21.18
2022-08-21T07:20:11.269Z,21.20
2022-08-21T07:22:19.147Z,21.20
2022-08-21T07:24:22.003Z,21.27
2022-08-21T07:26:26.854Z,21.36
2022-08-21T07:28:30.239Z,21.37
2022-08-21T07:30:33.455Z,21.44
2022-08-21T07:32:36.340Z,21.46
2022-08-21T07:34:39.229Z,21.51
2022-08-21T07:36:42.083Z,21.57
2022-08-21T07:38:45.961Z,21.63
2022-08-21T07:40:50.563Z,21.64
2022-08-21T07:42:55.321Z,21.74
2022-08-21T07:44:58.341Z,22.08
2022-08-21T07:47:01.321Z,22.10
2022-08-21T07:49:04.435Z,22.02
2022-08-21T07:51:10.722Z,21.92
2022-08-21T07:53:13.704Z,22.03
2022-08-21T07:55:19.042Z,22.27
2022-08-21T07:57:21.883Z,22.53
2022-08-21T07:59:26.206Z,22.66
2022-08-21T08:01:29.086Z,22.66
2022-08-21T08:03:32.043Z,22.71
2022-08-21T08:05:38.118Z,22.83
2022-08-21T08:07:41.173Z,22.84
2022-08-21T08:09:44.521Z,22.97
2022-08-21T08:11:47.641Z,22.99
2022-08-21T08:13:53.340Z,22.93
2022-08-21T08:15:57.592Z,23.08
2022-08-21T08:18:00.409Z,23.06
2022-08-21T08:20:03.732Z,23.14
2022-08-21T08:22:16.173Z,23.13
2022-08-21T08:24:19.838Z,23.20
2022-08-21T08:26:23.073Z,23.30
2022-08-21T08:28:26.667Z,23.44
2022-08-21T08:30:32.959Z,23.30
2022-08-21T08:32:37.598Z,23.38
2022-08-21T08:34:41.033Z,23.29
2022-08-21T08:36:43.900Z,23.32
2022-08-21T08:38:46.857Z,23.33
2022-08-21T08:40:55.190Z,23.43
2022-08-21T08:42:58.420Z,23.33
2022-08-21T08:45:04.096Z,23.38
2022-08-21T08:47:07.756Z,23.51
2022-08-21T08:49:17.567Z,23.39
2022-08-21T08:51:28.869Z,23.39
2022-08-21T08:53:35.411Z,23.47
2022-08-21T08:55:41.896Z,23.51
2022-08-21T08:57:49.884Z,23.60
2022-08-21T08:59:56.093Z,23.69
2022-08-21T09:01:58.971Z,23.80
2022-08-21T09:04:02.388Z,23.88
2022-08-21T09:06:15.671Z,23.98
2022-08-21T09:08:38.738Z,24.03
2022-08-21T09:10:57.618Z,24.16
2022-08-21T09:13:10.466Z,24.14
2022-08-21T09:15:25.820Z,24.16
2022-08-21T09:17:40.029Z,24.19
2022-08-21T09:20:00.704Z,24.20
2022-08-21T09:22:16.462Z,24.36
2022-08-21T09:24:32.402Z,24.54
2022-08-21T09:26:49.530Z,24.57
2022-08-21T09:28:55.418Z,24.68
2022-08-21T09:31:03.414Z,24.80
2022-08-21T09:33:06.595Z,24.89
2022-08-21T09:35:12.471Z,24.94
2022-08-21T09:37:20.533Z,25.00
2022-08-21T09:39:28.133Z,25.13
2022-08-21T09:41:33.304Z,25.14
2022-08-21T09:43:37.870Z,25.22
2022-08-21T09:45:42.748Z,25.29
2022-08-21T09:47:46.582Z,25.37
2022-08-21T09:49:50.278Z,25.46
2022-08-21T09:51:55.763Z,25.57
2022-08-21T09:54:13.627Z,25.66
2022-08-21T09:56:44.505Z,25.55
2022-08-21T09:58:52.107Z,25.44
2022-08-21T10:01:00.359Z,25.54
2022-08-21T10:03:19.718Z,25.83
2022-08-21T10:05:25.873Z,25.78
2022-08-21T10:07:31.549Z,25.78
2022-08-21T10:09:35.824Z,25.82
2022-08-21T10:11:38.574Z,25.87
2022-08-21T10:13:54.512Z,25.80
2022-08-21T10:16:11.176Z,25.82
2022-08-21T10:18:23.833Z,25.90
2022-08-21T10:20:33.635Z,25.99
2022-08-21T10:22:43.534Z,25.96
2022-08-21T10:24:59.880Z,26.09
2022-08-21T10:27:20.390Z,26.19
2022-08-21T10:29:41.414Z,26.14
2022-08-21T10:31:56.868Z,26.10
2022-08-21T10:34:15.586Z,26.00
2022-08-21T10:36:23.566Z,26.01
2022-08-21T10:39:07.456Z,26.17
2022-08-21T10:41:29.350Z,26.34
2022-08-21T10:43:41.942Z,26.41
2022-08-21T10:45:56.532Z,26.42
2022-08-21T10:48:04.783Z,26.44
2022-08-21T10:50:19.005Z,26.59
2022-08-21T10:52:36.123Z,26.73
2022-08-21T10:54:48.412Z,26.86
2022-08-21T10:56:59.993Z,26.87
2022-08-21T10:59:17.900Z,26.78
2022-08-21T11:01:28.533Z,26.96
2022-08-21T11:03:35.912Z,27.00
2022-08-21T11:05:50.661Z,27.03
2022-08-21T11:07:57.350Z,27.03
2022-08-21T11:10:10.464Z,27.19
2022-08-21T11:12:25.693Z,27.28
2022-08-21T11:14:38.448Z,27.20
2022-08-21T11:16:46.045Z,27.24
2022-08-21T11:18:55.385Z,27.25
2022-08-21T11:21:06.745Z,27.29
2022-08-21T11:23:16.464Z,27.29
2022-08-21T11:25:24.934Z,27.23
2022-08-21T11:27:44.118Z,27.27
2022-08-21T11:29:52.096Z,27.36
2022-08-21T11:32:09.687Z,27.32
2022-08-21T11:34:27.268Z,27.31
2022-08-21T11:36:38.485Z,27.37
2022-08-21T11:38:44.101Z,27.68
2022-08-21T11:41:01.428Z,27.52
2022-08-21T11:43:14.010Z,27.57
2022-08-21T11:45:28.370Z,27.56
2022-08-21T11:47:43.654Z,27.56
2022-08-21T11:49:59.989Z,27.55
2022-08-21T11:52:13.312Z,27.54
2022-08-21T11:54:28.722Z,27.52
2022-08-21T11:56:36.892Z,27.39
2022-08-21T11:58:47.329Z,27.47
2022-08-21T12:00:55.321Z,27.55
2022-08-21T12:03:07.477Z,27.58
2022-08-21T12:05:14.034Z,27.60
2022-08-21T12:07:19.697Z,27.60
2022-08-21T12:09:37.539Z,27.63
2022-08-21T12:11:49.998Z,27.73
2022-08-21T12:13:59.596Z,27.79
2022-08-21T12:16:11.533Z,27.65
2022-08-21T12:18:32.301Z,27.70
2022-08-21T12:20:50.153Z,27.79
2022-08-21T12:22:56.736Z,28.03
2022-08-21T12:25:07.975Z,27.99
2022-08-21T12:27:29.521Z,28.01
2022-08-21T12:29:38.208Z,28.21
2022-08-21T12:31:51.650Z,28.29
2022-08-21T12:34:00.901Z,28.24
2022-08-21T12:36:08.890Z,28.34
2022-08-21T12:38:19.070Z,28.22
2022-08-21T12:40:25.657Z,28.18
2022-08-21T12:42:36.244Z,28.28
2022-08-21T12:44:48.320Z,28.41
2022-08-21T12:47:00.432Z,28.48
2022-08-21T12:49:14.606Z,28.56
2022-08-21T12:51:20.408Z,28.68
2022-08-21T12:53:30.264Z,28.72
2022-08-21T12:55:35.560Z,28.66
2022-08-21T12:57:39.766Z,28.67
2022-08-21T12:59:44.174Z,28.41
2022-08-21T13:01:52.470Z,28.49
2022-08-21T13:04:04.412Z,28.55
2022-08-21T13:06:10.537Z,28.56
2022-08-21T13:08:17.504Z,28.56
2022-08-21T13:10:25.016Z,28.58
2022-08-21T13:12:32.455Z,28.51
2022-08-21T13:14:45.144Z,28.53
2022-08-21T13:16:55.781Z,28.58
2022-08-21T13:19:01.608Z,28.62
2022-08-21T13:21:08.757Z,28.77
2022-08-21T13:23:23.035Z,28.75
2022-08-21T13:25:30.625Z,28.61
2022-08-21T13:27:33.517Z,28.42
2022-08-21T13:29:38.537Z,28.46
2022-08-21T13:31:44.413Z,28.46
2022-08-21T13:33:51.704Z,28.47
2022-08-21T13:36:05.639Z,28.53
2022-08-21T13:38:10.122Z,28.68
2022-08-21T13:40:16.960Z,28.72
2022-08-21T13:42:21.097Z,28.72
2022-08-21T13:44:27.482Z,28.79
2022-08-21T13:46:38.757Z,28.86
2022-08-21T13:48:42.071Z,28.78
2022-08-21T13:50:47.000Z,28.78
2022-08-21T13:53:00.001Z,28.88
2022-08-21T13:55:11.161Z,28.74
2022-08-21T13:57:19.475Z,28.78
2022-08-21T13:59:28.618Z,28.83
2022-08-21T14:01:35.276Z,28.97
2022-08-21T14:03:45.068Z,28.67
2022-08-21T14:05:49.947Z,28.58
2022-08-21T14:07:59.996Z,28.61
2022-08-21T14:10:04.056Z,28.65
2022-08-21T14:12:23.642Z,28.81
2022-08-21T14:14:30.384Z,28.80
2022-08-21T14:16:44.673Z,28.84
2022-08-21T14:18:51.035Z,28.72
2022-08-21T14:21:07.337Z,28.78
2022-08-21T14:23:10.438Z,28.83
2022-08-21T14:25:18.079Z,29.00
2022-08-21T14:27:21.187Z,28.98
2022-08-21T14:29:28.353Z,29.03
2022-08-21T14:31:36.083Z,29.22
2022-08-21T14:33:46.504Z,29.43
2022-08-21T14:35:49.348Z,29.30
2022-08-21T14:37:55.016Z,29.22
2022-08-21T14:39:58.110Z,29.01
2022-08-21T14:42:01.906Z,29.04
2022-08-21T14:44:09.662Z,29.17
2022-08-21T14:46:14.834Z,29.14
2022-08-21T14:48:17.938Z,29.22
2022-08-21T14:50:23.151Z,29.29
2022-08-21T14:52:26.332Z,29.27
2022-08-21T14:54:32.666Z,29.43
2022-08-21T14:56:36.704Z,29.45
2022-08-21T14:58:42.246Z,29.37
2022-08-21T15:00:45.470Z,29.46
2022-08-21T15:02:49.215Z,29.37
2022-08-21T15:04:52.087Z,29.24
2022-08-21T15:06:54.941Z,29.31
2022-08-21T15:08:57.746Z,29.19
2022-08-21T15:11:41.151Z,29.24
2022-08-21T15:13:26.387Z,29.32
2022-08-21T15:15:30.086Z,29.27
2022-08-21T15:17:32.971Z,29.25
2022-08-21T15:19:36.067Z,29.31
2022-08-21T15:21:38.966Z,29.21
2022-08-21T15:23:43.918Z,29.17
2022-08-21T15:25:49.254Z,29.28
2022-08-21T15:27:53.468Z,29.21
2022-08-21T15:29:56.482Z,29.17
2022-08-21T15:32:01.391Z,29.19
2022-08-21T15:34:04.970Z,29.12
2022-08-21T15:36:08.812Z,29.11
2022-08-21T15:38:11.763Z,28.83
2022-08-21T15:40:15.235Z,28.84
2022-08-21T15:42:18.645Z,28.91
2022-08-21T15:44:23.140Z,28.94
2022-08-21T15:46:26.110Z,29.06
2022-08-21T15:48:29.024Z,29.16
2022-08-21T15:50:32.932Z,29.32
2022-08-21T15:52:36.300Z,29.40
2022-08-21T15:54:39.133Z,29.23
2022-08-21T15:56:47.336Z,29.07
2022-08-21T15:58:50.945Z,29.06
2022-08-21T16:00:55.211Z,29.07
2022-08-21T16:03:00.521Z,29.06
2022-08-21T16:05:04.076Z,29.09
2022-08-21T16:07:09.688Z,29.22
2022-08-21T16:09:12.759Z,29.22
2022-08-21T16:11:17.779Z,29.31
2022-08-21T16:13:25.205Z,29.23
2022-08-21T16:15:28.690Z,29.14
2022-08-21T16:17:35.378Z,28.97
2022-08-21T16:19:39.570Z,29.01
2022-08-21T16:21:42.651Z,29.04
2022-08-21T16:23:45.874Z,29.11
2022-08-21T16:25:49.258Z,29.24
2022-08-21T16:27:59.348Z,29.15
2022-08-21T16:30:03.050Z,29.18
2022-08-21T16:32:07.572Z,29.22
2022-08-21T16:34:18.635Z,29.16
2022-08-21T16:36:22.341Z,29.07
2022-08-21T16:38:25.646Z,28.87
2022-08-21T16:40:28.695Z,28.62
2022-08-21T16:42:31.694Z,28.45
2022-08-21T16:44:35.513Z,28.39
2022-08-21T16:46:42.210Z,28.32
2022-08-21T16:48:45.555Z,28.31
2022-08-21T16:50:51.167Z,28.26
2022-08-21T16:52:54.408Z,28.21
2022-08-21T16:54:57.566Z,28.25
2022-08-21T16:57:01.581Z,28.17
2022-08-21T16:59:05.952Z,28.13
2022-08-21T17:01:11.659Z,28.14
2022-08-21T17:03:17.073Z,28.10
2022-08-21T17:05:20.473Z,28.05
2022-08-21T17:07:24.746Z,28.07
2022-08-21T17:09:27.618Z,27.97
2022-08-21T17:11:38.127Z,27.92
2022-08-21T17:13:41.280Z,27.86
2022-08-21T17:15:44.730Z,27.86
2022-08-21T17:17:47.602Z,27.82
2022-08-21T17:19:50.380Z,27.85
2022-08-21T17:21:53.284Z,27.83
2022-08-21T17:23:57.493Z,27.79
2022-08-21T17:26:01.301Z,27.60
2022-08-21T17:28:05.086Z,27.58
2022-08-21T17:30:09.157Z,27.60
2022-08-21T17:32:13.509Z,27.58
2022-08-21T17:34:16.569Z,27.54
2022-08-21T17:36:20.101Z,27.54
2022-08-21T17:38:22.999Z,27.48
2022-08-21T17:40:32.490Z,27.48
2022-08-21T17:42:40.935Z,27.45
2022-08-21T17:44:45.601Z,27.42
2022-08-21T17:46:49.086Z,27.38
2022-08-21T17:48:51.947Z,27.36
2022-08-21T17:50:55.114Z,27.36
2022-08-21T17:52:58.132Z,27.35
2022-08-21T17:55:01.157Z,27.34
2022-08-21T17:57:06.600Z,27.36
2022-08-21T17:59:11.188Z,27.32
2022-08-21T18:01:14.098Z,27.27
2022-08-21T18:03:21.246Z,27.23
2022-08-21T18:05:24.221Z,27.15
2022-08-21T18:07:32.518Z,27.03
2022-08-21T18:09:35.840Z,26.95
2022-08-21T18:11:38.718Z,26.90
2022-08-21T18:13:43.351Z,26.83
2022-08-21T18:15:50.771Z,26.77
2022-08-21T18:17:54.175Z,26.70
2022-08-21T18:19:59.467Z,26.60
2022-08-21T18:22:06.625Z,26.54
2022-08-21T18:24:14.025Z,26.43
2022-08-21T18:26:22.309Z,26.42
2022-08-21T18:28:27.580Z,26.38
2022-08-21T18:30:34.478Z,26.35
2022-08-21T18:32:37.538Z,26.29
2022-08-21T18:34:42.885Z,26.28
2022-08-21T18:36:45.769Z,26.24
2022-08-21T18:38:48.738Z,26.17
2022-08-21T18:40:56.235Z,26.16
2022-08-21T18:43:03.914Z,26.09
2022-08-21T18:45:10.384Z,26.03
2022-08-21T18:47:23.625Z,26.02
2022-08-21T18:49:27.087Z,25.96
2022-08-21T18:51:29.993Z,25.92
2022-08-21T18:53:33.448Z,25.87
2022-08-21T18:55:41.635Z,25.84
2022-08-21T18:57:46.520Z,25.82
2022-08-21T18:59:49.736Z,25.79
2022-08-21T19:01:53.099Z,25.76
2022-08-21T19:03:57.357Z,25.72
2022-08-21T19:06:00.053Z,25.57
2022-08-21T19:08:02.911Z,25.59
2022-08-21T19:12:31.077Z,25.53
2022-08-21T19:14:34.503Z,25.47
2022-08-21T19:16:42.375Z,25.46
2022-08-21T19:18:50.616Z,25.42
2022-08-21T19:20:54.830Z,25.37
2022-08-21T19:22:58.204Z,25.30
2022-08-21T19:25:01.053Z,25.27
2022-08-21T19:27:05.323Z,25.23
2022-08-21T19:29:10.215Z,25.21
2022-08-21T19:31:16.365Z,25.18
2022-08-21T19:33:24.269Z,25.17
2022-08-21T19:35:27.180Z,25.18
2022-08-21T19:37:31.436Z,25.17
2022-08-21T19:39:41.351Z,25.11
2022-08-21T19:41:51.327Z,25.09
2022-08-21T19:43:58.120Z,25.05
2022-08-21T19:46:01.051Z,25.00
2022-08-21T19:48:05.030Z,24.99
2022-08-21T19:50:18.069Z,24.96
2022-08-21T19:52:24.412Z,24.91
2022-08-21T19:54:31.355Z,24.87
2022-08-21T19:56:34.504Z,24.84
2022-08-21T19:58:41.511Z,24.83
2022-08-21T20:00:44.361Z,24.81
2022-08-21T20:02:48.039Z,24.77
2022-08-21T20:04:53.931Z,24.72
2022-08-21T20:07:14.065Z,24.69
2022-08-21T20:09:18.094Z,24.68
2022-08-21T20:11:28.419Z,24.65
2022-08-21T20:13:34.790Z,24.61
2022-08-21T20:15:37.785Z,24.58
2022-08-21T20:17:41.895Z,24.61
2022-08-21T20:19:50.167Z,24.62
2022-08-21T20:21:58.315Z,24.61
2022-08-21T20:24:01.065Z,24.49
2022-08-21T20:26:06.293Z,24.52
2022-08-21T20:28:10.834Z,24.52
2022-08-21T20:30:14.628Z,24.51
2022-08-21T20:32:22.344Z,24.50
2022-08-21T20:34:25.588Z,24.50
2022-08-21T20:36:28.454Z,24.49
2022-08-21T20:38:31.662Z,24.47
2022-08-21T20:40:35.732Z,24.45
2022-08-21T20:42:38.807Z,24.44
2022-08-21T20:44:46.840Z,24.42
2022-08-21T20:46:50.553Z,24.37
2022-08-21T20:48:53.930Z,24.34
2022-08-21T20:51:06.310Z,24.38
2022-08-21T20:53:15.110Z,24.36
2022-08-21T20:55:29.122Z,24.35
2022-08-21T20:57:39.180Z,24.18
2022-08-21T20:59:49.986Z,24.21
2022-08-21T21:01:58.107Z,24.25
2022-08-21T21:04:09.991Z,24.28
2022-08-21T21:06:18.559Z,24.27
2022-08-21T21:08:25.839Z,24.28
2022-08-21T21:10:36.055Z,24.30
2022-08-21T21:12:43.500Z,24.30
2022-08-21T21:14:52.681Z,24.29
2022-08-21T21:17:00.015Z,24.29
2022-08-21T21:19:07.213Z,24.27
2022-08-21T21:21:19.632Z,24.27
2022-08-21T21:23:28.344Z,24.26
2022-08-21T21:25:40.641Z,24.21
2022-08-21T21:27:49.132Z,24.17
2022-08-21T21:30:00.669Z,24.12
2022-08-21T21:32:05.936Z,24.04
2022-08-21T21:34:09.172Z,24.02
2022-08-21T21:36:30.151Z,24.07
2022-08-21T21:38:38.499Z,24.12
2022-08-21T21:41:09.086Z,24.14
2022-08-21T21:43:19.104Z,24.11
2022-08-21T21:45:28.994Z,24.07
2022-08-21T21:47:48.629Z,24.07
2022-08-21T21:50:05.463Z,24.11
2022-08-21T21:52:27.402Z,24.09
2022-08-21T21:54:59.592Z,24.07
2022-08-21T21:57:17.869Z,24.08
2022-08-21T21:59:32.223Z,24.05
2022-08-21T22:01:43.022Z,24.05
2022-08-21T22:03:54.918Z,24.03
2022-08-21T22:06:01.924Z,24.01
2022-08-21T22:08:10.122Z,23.89
2022-08-21T22:10:30.693Z,23.87
2022-08-21T22:12:49.755Z,23.88
2022-08-21T22:14:53.247Z,23.86
2022-08-21T22:16:59.385Z,23.87
2022-08-21T22:19:08.159Z,23.87
2022-08-21T22:21:23.946Z,23.85
2022-08-21T22:23:31.094Z,23.82
2022-08-21T22:25:37.435Z,23.79
2022-08-21T22:27:41.799Z,23.78
2022-08-21T22:29:46.329Z,23.65
2022-08-21T22:32:05.583Z,23.71
2022-08-21T22:36:38.037Z,23.73
2022-08-21T22:38:40.902Z,23.69
2022-08-21T22:40:44.136Z,23.64
2022-08-21T22:42:58.497Z,23.65
2022-08-21T22:45:04.676Z,23.60
2022-08-21T22:47:09.152Z,23.58
2022-08-21T22:49:25.193Z,23.60
2022-08-21T22:51:33.578Z,23.59
2022-08-21T22:53:41.325Z,23.68
2022-08-21T22:55:53.378Z,23.55
2022-08-21T22:58:11.384Z,23.52
2022-08-21T23:00:19.071Z,23.50
2022-08-21T23:02:32.401Z,23.54
2022-08-21T23:04:48.315Z,23.56
2022-08-21T23:06:55.253Z,23.58
2022-08-21T23:11:25.136Z,23.57
2022-08-21T23:13:40.540Z,23.53
2022-08-21T23:16:05.178Z,23.41
2022-08-21T23:18:19.355Z,23.37
2022-08-21T23:20:28.933Z,23.38
2022-08-21T23:22:40.694Z,23.43
2022-08-21T23:24:59.486Z,23.46
2022-08-21T23:27:18.421Z,23.42
2022-08-21T23:29:29.887Z,23.44
2022-08-21T23:31:41.037Z,23.45
2022-08-21T23:34:20.105Z,23.50
2022-08-21T23:36:45.272Z,23.47
2022-08-21T23:39:05.197Z,23.43
2022-08-21T23:41:18.748Z,23.42
2022-08-21T23:43:49.784Z,23.41
2022-08-21T23:46:08.204Z,23.36
2022-08-21T23:48:29.290Z,23.39
2022-08-21T23:50:40.775Z,23.42
2022-08-21T23:52:59.624Z,23.34
2022-08-21T23:55:21.324Z,23.29
2022-08-21T23:57:37.929Z,23.24
2022-08-21T23:59:56.550Z,23.29
